Portada
METAR-TAF:

METAR-TAF

Aeropuertos :

Aeropuerto Internacional Rarotonga

Rarotonga, Islas Cook

latitud: 21-12S, longitud: 159-49W, altitud: 7 m

Observación

El informe se hizo hace 12 minutos, a las 14:00 UTC
Viento 9 kt del este, variando entre este-noreste y sur-sureste
Temperatura 25°C
Humedad 74%
Presión 1015 hPa
Visibilidad 10 km o más

METAR: NCRG 241400Z AUTO 10009KT 060V150 9999 FEW035/// SCT048/// 25/20 Q1015

Hora: 04:12 (14:12 UTC)

Pronóstico

El informe se hizo hace 2 horas y 56 minutos, a las 11:16 UTC
Pronóstico válido del 24 a las 12 UTC al 25 a las 12 UTC
Viento 12 kt del este-sureste
Visibilidad 10 km o más
Nubes dispersas a una altura de 2000 ft
Cielo nuboso a una altura de 4000 ft
Probabilidad 30% :
Temporalmente
del 24 a las 18 UTC al 25 a las 07 UTC
Viento 15 kt del este-sureste con ráfagas de 25 kt

TAF: NCRG 241116Z 2412/2512 11012KT 9999 SCT020 BKN040 PROB30 TEMPO 2418/2507 11015G25KT

Observaciones y pronósticos meteorológicos de más de 4000 aeropuertos (mensajes METAR y TAF).

Los puntos amarillos y rojos representan las estaciones disponibles.

Ponga el ratón en el punto deseado para ver el nombre de la estación.

Haga clic para ver las observaciones y los pronósticos meteorológicos.

Para cambiar el mapa : haga clic en los botones verdes con una cruz de color negro para hacer un zoom, en el botón verde con un guión para alejar o en las flechas verdes para mapas adyacentes.


METAR-TAF: